Time;durP1;ratioP1;P1;durP2;ratioP2;P2;SDS_P1;SDS_P2;PMS_P1;PMS_P2;Temp;Humidity;BMP_temperature;BMP_pressure;BME280_temperature;BME280_humidity;BME280_pressure;Samples;Min_cycle;Max_cycle;Signal;HPM_P1;HPM_P2
2024/03/14 00:00:06;;;;;;;15.90;8.70;;;10.90;99.90;;;;;;5022206;28;20093;-77
2024/03/14 00:02:33;;;;;;;13.13;9.07;;;10.90;99.90;;;;;;5029249;28;20112;-77
2024/03/14 00:04:59;;;;;;;14.07;8.43;;;10.80;99.90;;;;;;5025283;28;20040;-77
2024/03/14 00:07:24;;;;;;;14.77;9.43;;;11.60;99.90;;;;;;5029114;28;20400;-77
2024/03/14 00:09:50;;;;;;;14.50;9.55;;;10.70;99.90;;;;;;5007463;28;20120;-77
2024/03/14 00:12:16;;;;;;;14.35;9.25;;;11.50;99.90;;;;;;5027254;28;20411;-77
2024/03/14 00:14:51;;;;;;;12.75;9.63;;;10.70;99.90;;;;;;5007960;28;20096;-77
2024/03/14 00:17:20;;;;;;;11.52;8.57;;;10.70;99.90;;;;;;5028205;28;20127;-77
2024/03/14 00:19:49;;;;;;;13.73;9.13;;;11.20;99.90;;;;;;5012894;28;20041;-77
2024/03/14 00:22:17;;;;;;;12.25;9.07;;;10.60;99.90;;;;;;5031328;28;20041;-77
2024/03/14 00:24:45;;;;;;;13.90;9.68;;;10.60;99.90;;;;;;4990895;28;20569;-77
2024/03/14 00:27:13;;;;;;;13.65;9.65;;;10.60;99.90;;;;;;5023383;28;20137;-78
2024/03/14 00:29:41;;;;;;;14.52;10.15;;;11.30;99.90;;;;;;4995833;28;20072;-78
2024/03/14 00:32:11;;;;;;;14.77;10.50;;;11.30;99.90;;;;;;5035172;28;20041;-78
2024/03/14 00:34:38;;;;;;;13.80;10.35;;;10.60;99.90;;;;;;5035133;28;20073;-78
2024/03/14 00:37:07;;;;;;;16.75;10.25;;;10.60;99.90;;;;;;5020168;28;20087;-78
2024/03/14 00:39:32;;;;;;;15.75;10.75;;;10.60;99.90;;;;;;5032895;28;20106;-78
2024/03/14 00:41:59;;;;;;;18.15;10.93;;;10.60;99.90;;;;;;5036467;28;20037;-77
2024/03/14 00:44:25;;;;;;;16.80;11.10;;;10.60;99.90;;;;;;5019435;28;20048;-77
2024/03/14 00:46:54;;;;;;;18.00;11.98;;;10.80;99.90;;;;;;5039808;28;20399;-77
2024/03/14 00:49:19;;;;;;;15.90;11.07;;;10.50;99.90;;;;;;5033842;28;20034;-77
2024/03/14 00:51:45;;;;;;;16.58;11.30;;;10.50;99.90;;;;;;5035933;28;20095;-77
2024/03/14 00:54:14;;;;;;;14.85;11.18;;;10.50;99.90;;;;;;5006117;28;20041;-77
2024/03/14 00:56:41;;;;;;;18.70;12.60;;;10.50;99.90;;;;;;5020615;28;20396;-77
2024/03/14 00:59:07;;;;;;;17.27;11.88;;;10.50;99.90;;;;;;5029212;28;20060;-77
2024/03/14 01:01:33;;;;;;;19.50;12.10;;;10.50;99.90;;;;;;5020194;28;20041;-77
2024/03/14 01:03:58;;;;;;;18.10;11.93;;;10.80;99.90;;;;;;5033470;28;20040;-77
2024/03/14 01:06:25;;;;;;;18.42;12.05;;;10.40;99.90;;;;;;5034477;28;20113;-77
2024/03/14 01:08:50;;;;;;;18.17;12.15;;;10.40;99.90;;;;;;5035783;28;20038;-77
2024/03/14 01:11:19;;;;;;;17.45;12.82;;;10.40;99.90;;;;;;5036265;28;20035;-77
2024/03/14 01:13:51;;;;;;;20.63;12.88;;;11.50;99.90;;;;;;5034553;28;20044;-77
2024/03/14 01:16:17;;;;;;;;;;;10.40;99.90;;;;;;5034655;28;20104;-77
2024/03/14 01:18:49;;;;;;;19.25;12.60;;;10.40;99.90;;;;;;5019020;28;20360;-77
2024/03/14 01:21:16;;;;;;;20.33;13.77;;;10.30;99.90;;;;;;5018575;28;20475;-77
2024/03/14 01:23:41;;;;;;;18.75;12.88;;;10.80;99.90;;;;;;5033496;28;20124;-77
2024/03/14 01:26:09;;;;;;;19.05;12.43;;;10.30;99.90;;;;;;5011785;28;20131;-77
2024/03/14 01:28:36;;;;;;;19.75;13.20;;;10.20;99.90;;;;;;5019318;28;20037;-77
2024/03/14 01:31:02;;;;;;;17.85;12.88;;;10.20;99.90;;;;;;5039426;28;20053;-77
2024/03/14 01:33:30;;;;;;;19.33;12.48;;;10.20;99.90;;;;;;5036154;28;20040;-77
2024/03/14 01:36:00;;;;;;;19.50;12.80;;;11.00;99.90;;;;;;5019749;28;20432;-77
2024/03/14 01:38:28;;;;;;;17.65;12.52;;;10.20;99.90;;;;;;5018643;28;20045;-77
2024/03/14 01:40:54;;;;;;;17.83;12.23;;;10.10;99.90;;;;;;5014579;28;20120;-77
2024/03/14 01:43:19;;;;;;;18.83;12.70;;;10.10;99.90;;;;;;5030546;28;20563;-77
2024/03/14 01:45:46;;;;;;;19.02;12.85;;;10.00;99.90;;;;;;5000483;28;20424;-77
2024/03/14 01:48:14;;;;;;;20.40;12.90;;;10.50;99.90;;;;;;5031633;28;20041;-77
2024/03/14 01:50:41;;;;;;;19.50;12.38;;;10.00;99.90;;;;;;4992514;28;20068;-77
2024/03/14 01:53:10;;;;;;;18.83;13.07;;;11.10;99.90;;;;;;5014329;28;20486;-77
2024/03/14 01:55:36;;;;;;;23.55;13.32;;;10.00;99.90;;;;;;4993030;28;20045;-78
2024/03/14 01:58:04;;;;;;;17.80;12.52;;;11.10;99.90;;;;;;5029981;28;20589;-78
2024/03/14 02:00:40;;;;;;;20.67;13.35;;;10.00;99.90;;;;;;5025654;28;20100;-77
2024/03/14 02:03:06;;;;;;;19.05;13.20;;;10.00;99.90;;;;;;5009021;28;20044;-77
2024/03/14 02:05:37;;;;;;;20.27;13.82;;;11.10;99.90;;;;;;5032910;28;20048;-77
2024/03/14 02:08:04;;;;;;;19.10;13.55;;;10.00;99.90;;;;;;5026845;28;20464;-77
2024/03/14 02:10:35;;;;;;;20.23;13.48;;;9.90;99.90;;;;;;5013346;28;20037;-77
2024/03/14 02:13:00;;;;;;;18.75;13.73;;;9.90;99.90;;;;;;5031689;28;20041;-77
2024/03/14 02:15:26;;;;;;;21.88;12.93;;;9.90;99.90;;;;;;5031908;28;20080;-77
2024/03/14 02:17:52;;;;;;;20.35;13.63;;;9.90;99.90;;;;;;5013619;28;20464;-77
2024/03/14 02:20:17;;;;;;;20.88;14.07;;;10.70;99.90;;;;;;5033258;28;20538;-77
2024/03/14 02:22:46;;;;;;;21.85;12.85;;;9.80;99.90;;;;;;5032158;28;20120;-77
2024/03/14 02:25:13;;;;;;;18.00;12.88;;;10.20;99.90;;;;;;5029755;28;20113;-77
2024/03/14 02:27:39;;;;;;;19.10;12.70;;;9.80;99.90;;;;;;5015418;28;20404;-77
2024/03/14 02:30:05;;;;;;;19.02;12.25;;;9.80;99.90;;;;;;5015235;28;20038;-77
2024/03/14 02:32:31;;;;;;;17.45;11.93;;;9.80;99.90;;;;;;5030630;28;20121;-77
2024/03/14 02:34:57;;;;;;;17.60;12.63;;;9.80;99.90;;;;;;5032944;28;20068;-77
2024/03/14 02:37:22;;;;;;;19.05;12.77;;;9.80;99.90;;;;;;5015519;28;20041;-77
2024/03/14 02:39:48;;;;;;;20.40;12.98;;;10.50;99.90;;;;;;5028241;28;20042;-77
2024/03/14 02:42:17;;;;;;;19.05;12.73;;;9.70;99.90;;;;;;5028742;28;20041;-77
2024/03/14 02:44:44;;;;;;;17.75;12.65;;;9.70;99.90;;;;;;5026371;28;20551;-77
2024/03/14 02:47:13;;;;;;;17.70;12.82;;;9.70;99.90;;;;;;4997781;28;20041;-77
2024/03/14 02:49:38;;;;;;;16.05;12.25;;;9.70;99.90;;;;;;5014525;28;20504;-77
2024/03/14 02:52:05;;;;;;;18.60;12.90;;;9.70;99.90;;;;;;5012673;28;20041;-77
2024/03/14 02:54:31;;;;;;;18.55;12.20;;;10.00;99.90;;;;;;5030987;28;20047;-77
2024/03/14 02:56:57;;;;;;;18.40;12.48;;;9.70;99.90;;;;;;5016660;28;20052;-77
2024/03/14 02:59:25;;;;;;;18.85;12.27;;;10.50;99.90;;;;;;5028458;28;20053;-77
2024/03/14 03:01:52;;;;;;;17.10;12.32;;;9.70;99.90;;;;;;5031738;28;20411;-77
2024/03/14 03:04:18;;;;;;;18.67;13.02;;;9.60;99.90;;;;;;5014986;28;20049;-77
2024/03/14 03:06:54;;;;;;;18.05;12.02;;;9.90;99.90;;;;;;5030103;28;20086;-78
2024/03/14 03:09:25;;;;;;;18.52;12.57;;;9.70;99.90;;;;;;4991883;28;20069;-78
2024/03/14 03:11:53;;;;;;;20.73;13.10;;;10.00;99.90;;;;;;5023006;28;20054;-77
2024/03/14 03:14:21;;;;;;;17.30;12.60;;;10.60;99.90;;;;;;5026893;28;20045;-77
2024/03/14 03:16:47;;;;;;;17.50;12.35;;;9.90;99.90;;;;;;4998127;28;20107;-77
2024/03/14 03:19:22;;;;;;;18.02;12.90;;;9.70;99.90;;;;;;5013466;28;20037;-77
2024/03/14 03:21:51;;;;;;;18.05;12.65;;;9.70;99.90;;;;;;5001103;28;20045;-77
2024/03/14 03:24:17;;;;;;;19.13;12.70;;;9.80;99.90;;;;;;5013133;28;20045;-78
2024/03/14 03:26:43;;;;;;;19.98;13.18;;;9.60;99.90;;;;;;5026162;28;20034;-77
2024/03/14 03:29:12;;;;;;;18.75;12.75;;;9.70;99.90;;;;;;5031334;28;20064;-77
2024/03/14 03:31:38;;;;;;;15.25;11.27;;;9.60;99.90;;;;;;5030496;28;20046;-77
2024/03/14 03:34:07;;;;;;;19.77;12.27;;;10.10;99.90;;;;;;5014791;28;20080;-77
2024/03/14 03:36:33;;;;;;;16.30;12.05;;;9.60;99.90;;;;;;4991052;28;20488;-77
2024/03/14 03:39:00;;;;;;;17.35;13.52;;;9.60;99.90;;;;;;5024484;28;20152;-77
2024/03/14 03:41:29;;;;;;;17.70;12.23;;;9.60;99.90;;;;;;5033041;28;20128;-77
2024/03/14 03:43:56;;;;;;;17.38;11.98;;;9.60;99.90;;;;;;4992125;28;20041;-77
2024/03/14 03:46:21;;;;;;;15.68;11.50;;;9.60;99.90;;;;;;5013283;28;20041;-77
2024/03/14 03:48:47;;;;;;;16.85;11.57;;;10.40;99.90;;;;;;5013581;28;20044;-77
2024/03/14 03:51:13;;;;;;;17.88;11.85;;;9.90;99.90;;;;;;5010260;28;20036;-77
2024/03/14 03:53:40;;;;;;;15.73;11.10;;;9.60;99.90;;;;;;4997876;28;20034;-77
2024/03/14 03:56:06;;;;;;;16.52;11.55;;;9.50;99.90;;;;;;5030324;28;20120;-77
2024/03/14 03:58:35;;;;;;;19.33;11.73;;;9.50;99.90;;;;;;5025750;28;20121;-77
2024/03/14 04:01:10;;;;;;;15.80;11.35;;;9.50;99.90;;;;;;5009877;28;20041;-77
2024/03/14 04:03:36;;;;;;;15.07;10.85;;;10.40;99.90;;;;;;4995357;28;20102;-77
2024/03/14 04:06:02;;;;;;;16.25;10.80;;;9.40;99.90;;;;;;5001776;28;20053;-77
2024/03/14 04:08:30;;;;;;;16.88;11.63;;;10.10;99.90;;;;;;5031288;28;20055;-77
2024/03/14 04:10:56;;;;;;;14.52;10.43;;;9.40;99.90;;;;;;5028508;28;20037;-77
2024/03/14 04:13:22;;;;;;;15.65;10.68;;;9.40;99.90;;;;;;5011684;28;20496;-77
2024/03/14 04:15:48;;;;;;;14.38;9.88;;;10.20;99.90;;;;;;5023844;28;20053;-77
2024/03/14 04:18:14;;;;;;;15.20;10.75;;;9.30;99.90;;;;;;5024511;28;20045;-77
2024/03/14 04:20:39;;;;;;;16.13;11.63;;;9.30;99.90;;;;;;5045620;23;20294;-65
2024/03/14 04:23:06;;;;;;;16.60;11.07;;;9.30;99.90;;;;;;5052962;28;20068;-62
2024/03/14 04:25:32;;;;;;;16.02;11.38;;;9.30;99.90;;;;;;5049438;28;20552;-65
2024/03/14 04:27:57;;;;;;;15.65;11.25;;;9.30;99.90;;;;;;5047854;28;20033;-65
2024/03/14 04:30:23;;;;;;;15.15;11.23;;;9.20;99.90;;;;;;5039029;28;20517;-61
2024/03/14 04:32:50;;;;;;;16.02;11.05;;;9.20;99.90;;;;;;5010972;28;20493;-61
2024/03/14 04:35:17;;;;;;;14.55;11.02;;;9.20;99.90;;;;;;5012293;28;20511;-62
2024/03/14 04:37:43;;;;;;;14.68;11.05;;;9.20;99.90;;;;;;5011451;28;20498;-61
2024/03/14 04:40:13;;;;;;;17.05;11.55;;;9.20;99.90;;;;;;5028712;28;20042;-61
2024/03/14 04:42:40;;;;;;;16.08;11.07;;;9.20;99.90;;;;;;5028447;28;20402;-61
2024/03/14 04:45:10;;;;;;;18.67;11.65;;;9.20;99.90;;;;;;5008976;28;20490;-61
2024/03/14 04:47:39;;;;;;;14.75;11.27;;;9.20;99.90;;;;;;5021770;28;20472;-61
2024/03/14 04:50:09;;;;;;;16.45;11.07;;;9.20;99.90;;;;;;5026495;28;20587;-62
2024/03/14 04:52:39;;;;;;;17.48;11.63;;;9.20;99.90;;;;;;5009608;28;20077;-61
2024/03/14 04:55:08;;;;;;;16.17;11.63;;;9.10;99.90;;;;;;5011373;28;20049;-62
2024/03/14 04:57:41;;;;;;;15.95;11.20;;;9.10;99.90;;;;;;5011287;28;20449;-61
2024/03/14 05:00:11;;;;;;;15.40;11.38;;;9.10;99.90;;;;;;5027869;28;20045;-64
2024/03/14 05:02:38;;;;;;;16.80;12.00;;;9.10;99.90;;;;;;5023277;28;20083;-65
2024/03/14 05:05:05;;;;;;;17.30;11.55;;;9.10;99.90;;;;;;5023894;28;20052;-63
2024/03/14 05:07:31;;;;;;;17.63;12.20;;;9.10;99.90;;;;;;5024442;28;20052;-65
2024/03/14 05:09:56;;;;;;;17.40;11.60;;;9.10;99.90;;;;;;5027840;28;20025;-62
2024/03/14 05:12:22;;;;;;;17.30;11.93;;;9.20;99.90;;;;;;5027002;28;20616;-61
2024/03/14 05:14:49;;;;;;;19.98;11.90;;;9.00;99.90;;;;;;5014021;28;20107;-62
2024/03/14 05:17:15;;;;;;;18.02;12.55;;;9.00;99.90;;;;;;5029050;28;20441;-62
2024/03/14 05:19:40;;;;;;;19.05;12.57;;;9.00;99.90;;;;;;5031140;28;20029;-63
2024/03/14 05:22:06;;;;;;;20.55;13.27;;;9.00;99.90;;;;;;5029445;28;20489;-63
2024/03/14 05:24:32;;;;;;;18.27;13.63;;;9.00;99.90;;;;;;5025032;28;20112;-63
2024/03/14 05:26:59;;;;;;;20.15;13.40;;;9.00;99.90;;;;;;5024944;28;20045;-64
2024/03/14 05:29:26;;;;;;;20.05;13.32;;;9.00;99.90;;;;;;4999270;28;20037;-64
2024/03/14 05:31:51;;;;;;;21.02;13.35;;;9.00;99.90;;;;;;5030593;28;20402;-65
2024/03/14 05:34:17;;;;;;;20.58;13.98;;;9.00;99.90;;;;;;5009540;28;20052;-62
2024/03/14 05:36:43;;;;;;;21.40;13.82;;;9.10;99.90;;;;;;5030639;28;20429;-62
2024/03/14 05:39:09;;;;;;;21.50;14.57;;;9.10;99.90;;;;;;5032775;28;20041;-62
2024/03/14 05:41:35;;;;;;;22.02;13.98;;;9.10;99.90;;;;;;5030193;28;20091;-62
2024/03/14 05:44:01;;;;;;;24.40;15.05;;;9.00;99.90;;;;;;5030698;28;20049;-62
2024/03/14 05:46:27;;;;;;;21.90;14.35;;;9.10;99.90;;;;;;5031575;28;20041;-62
2024/03/14 05:48:53;;;;;;;23.08;14.55;;;9.10;99.90;;;;;;5032668;28;20080;-63
2024/03/14 05:51:20;;;;;;;21.45;15.15;;;9.10;99.90;;;;;;5028184;28;20067;-62
2024/03/14 05:53:45;;;;;;;23.27;14.55;;;9.10;99.90;;;;;;5014128;28;20045;-63
2024/03/14 05:56:23;;;;;;;25.38;16.00;;;9.10;99.90;;;;;;5032238;28;20124;-62
2024/03/14 05:58:49;;;;;;;22.77;16.02;;;9.10;99.90;;;;;;5032472;28;20041;-65
2024/03/14 06:01:17;;;;;;;23.38;15.57;;;9.10;99.90;;;;;;5023690;28;20091;-68
2024/03/14 06:03:44;;;;;;;23.58;15.98;;;9.10;99.90;;;;;;5029202;28;20077;-68
2024/03/14 06:06:10;;;;;;;23.90;16.67;;;9.10;99.90;;;;;;5014036;28;20464;-65
2024/03/14 06:08:35;;;;;;;27.15;16.15;;;9.10;99.90;;;;;;5030319;28;20046;-64
2024/03/14 06:11:02;;;;;;;25.48;16.33;;;9.10;99.90;;;;;;5030085;28;20112;-65
2024/03/14 06:13:28;;;;;;;25.52;16.73;;;9.10;99.90;;;;;;5014034;28;20029;-64
2024/03/14 06:15:54;;;;;;;26.60;17.20;;;9.10;99.90;;;;;;5013024;28;20049;-64
2024/03/14 06:18:21;;;;;;;26.88;17.15;;;9.10;99.90;;;;;;5013171;28;20166;-65
2024/03/14 06:20:47;;;;;;;24.73;17.23;;;9.10;99.90;;;;;;5029126;28;20045;-65
2024/03/14 06:23:14;;;;;;;26.05;17.35;;;9.10;99.90;;;;;;5006926;28;20060;-67
2024/03/14 06:25:41;;;;;;;27.23;17.65;;;9.10;99.90;;;;;;5028756;28;20571;-65
2024/03/14 06:28:07;;;;;;;26.00;17.20;;;9.10;99.90;;;;;;5030754;28;20056;-64
2024/03/14 06:30:33;;;;;;;32.25;17.67;;;9.10;99.90;;;;;;5023481;28;20026;-64
2024/03/14 06:32:58;;;;;;;24.15;17.33;;;9.10;99.90;;;;;;5013414;28;20053;-67
2024/03/14 06:35:24;;;;;;;26.08;17.08;;;9.10;99.90;;;;;;5029005;28;20032;-65
2024/03/14 06:37:53;;;;;;;28.08;17.77;;;9.10;99.90;;;;;;5030229;28;20063;-65
2024/03/14 06:40:21;;;;;;;27.33;17.17;;;9.10;99.90;;;;;;5031485;28;20159;-64
2024/03/14 06:42:48;;;;;;;25.92;17.00;;;9.10;99.90;;;;;;5032032;28;20048;-64
2024/03/14 06:45:15;;;;;;;25.38;17.23;;;9.10;99.90;;;;;;5022908;28;20085;-65
2024/03/14 06:47:43;;;;;;;26.58;17.30;;;9.10;99.90;;;;;;5008051;28;20037;-64
2024/03/14 06:50:09;;;;;;;26.60;18.10;;;9.10;99.90;;;;;;5030892;28;20042;-64
2024/03/14 06:52:38;;;;;;;27.67;17.73;;;9.20;99.90;;;;;;5013630;28;20787;-64
2024/03/14 06:55:09;;;;;;;26.92;17.52;;;9.10;99.90;;;;;;5030944;28;20112;-66
2024/03/14 06:57:40;;;;;;;26.38;17.50;;;9.20;99.90;;;;;;5030796;28;20041;-66
2024/03/14 07:00:16;;;;;;;27.67;17.55;;;9.20;99.90;;;;;;5012850;28;20071;-66
2024/03/14 07:02:44;;;;;;;25.80;16.70;;;9.30;99.90;;;;;;5030612;28;20033;-66
2024/03/14 07:05:09;;;;;;;35.15;17.85;;;9.30;99.90;;;;;;5028284;28;20041;-66
2024/03/14 07:07:36;;;;;;;26.55;17.30;;;9.30;99.90;;;;;;5022709;28;20042;-66
2024/03/14 07:10:08;;;;;;;28.85;17.80;;;9.30;99.90;;;;;;5021700;28;20033;-66
2024/03/14 07:12:35;;;;;;;28.10;18.23;;;9.30;99.90;;;;;;5026584;28;20076;-66
2024/03/14 07:15:03;;;;;;;24.20;17.48;;;9.30;99.90;;;;;;5031071;28;20095;-66
2024/03/14 07:17:29;;;;;;;27.17;17.02;;;9.30;99.90;;;;;;5013090;28;20077;-66
2024/03/14 07:19:54;;;;;;;26.98;18.05;;;9.30;99.90;;;;;;5030486;28;20099;-66
2024/03/14 07:22:24;;;;;;;28.35;18.23;;;9.40;99.90;;;;;;5012196;28;20041;-66
2024/03/14 07:24:53;;;;;;;28.25;18.23;;;9.30;99.90;;;;;;5030831;28;20041;-66
2024/03/14 07:27:19;;;;;;;25.15;17.05;;;9.40;99.90;;;;;;5012468;28;20650;-66
2024/03/14 07:29:47;;;;;;;28.23;17.92;;;9.40;99.90;;;;;;5030100;28;20105;-66
2024/03/14 07:32:14;;;;;;;26.25;17.45;;;9.50;99.90;;;;;;5011810;28;20426;-66
2024/03/14 07:34:44;;;;;;;24.65;17.80;;;9.60;99.90;;;;;;5009694;28;20048;-66
2024/03/14 07:37:13;;;;;;;26.40;17.10;;;9.60;99.90;;;;;;5021124;28;20069;-66
2024/03/14 07:39:39;;;;;;;28.33;18.25;;;9.70;99.90;;;;;;5005713;28;20046;-66
2024/03/14 07:42:05;;;;;;;24.13;17.20;;;9.70;99.90;;;;;;5025775;28;20044;-66
2024/03/14 07:44:31;;;;;;;24.08;17.10;;;9.80;99.90;;;;;;5027217;28;20033;-66
2024/03/14 07:46:58;;;;;;;25.55;17.45;;;9.80;99.90;;;;;;5029327;28;20387;-66
2024/03/14 07:49:25;;;;;;;23.35;16.20;;;9.80;99.90;;;;;;5028085;28;20049;-66
2024/03/14 07:51:52;;;;;;;24.85;16.67;;;9.80;99.90;;;;;;5030106;28;20033;-63
2024/03/14 07:54:18;;;;;;;27.17;17.23;;;9.90;99.90;;;;;;5029321;28;20427;-63
2024/03/14 07:56:46;;;;;;;30.75;17.05;;;9.90;99.90;;;;;;5030188;28;20208;-63
2024/03/14 07:59:12;;;;;;;24.35;16.63;;;9.90;99.90;;;;;;5007416;28;20041;-63
2024/03/14 08:01:38;;;;;;;27.08;16.73;;;9.90;99.90;;;;;;5027588;28;20116;-63
2024/03/14 08:04:04;;;;;;;25.88;17.38;;;9.90;99.90;;;;;;5029915;28;20073;-63
2024/03/14 08:06:39;;;;;;;22.65;15.77;;;9.90;99.90;;;;;;5029697;28;20090;-64
2024/03/14 08:09:05;;;;;;;23.08;15.98;;;10.00;99.90;;;;;;5012121;28;20044;-64
2024/03/14 08:11:31;;;;;;;23.60;16.17;;;10.00;99.90;;;;;;5029872;28;20440;-64
2024/03/14 08:13:58;;;;;;;23.52;15.45;;;10.00;99.90;;;;;;5012204;28;20073;-64
2024/03/14 08:16:24;;;;;;;23.02;16.17;;;10.10;99.90;;;;;;5029197;28;20138;-62
2024/03/14 08:18:51;;;;;;;23.00;17.10;;;10.10;99.90;;;;;;5010634;28;20098;-62
2024/03/14 08:21:17;;;;;;;23.48;15.18;;;10.10;99.90;;;;;;5013444;28;20136;-64
2024/03/14 08:23:44;;;;;;;23.40;15.63;;;10.20;99.90;;;;;;4998839;28;20442;-64
2024/03/14 08:26:10;;;;;;;21.70;16.17;;;10.20;99.90;;;;;;5022883;28;20402;-64
2024/03/14 08:28:41;;;;;;;20.80;15.18;;;10.30;99.90;;;;;;5017629;28;20040;-64
2024/03/14 08:31:14;;;;;;;22.85;15.15;;;10.30;99.90;;;;;;5003050;28;20029;-64
2024/03/14 08:33:41;;;;;;;21.77;15.45;;;10.40;99.90;;;;;;5017277;28;20042;-64
2024/03/14 08:36:07;;;;;;;22.17;15.35;;;10.40;99.90;;;;;;5021404;28;20087;-61
2024/03/14 08:38:34;;;;;;;22.73;15.07;;;10.50;99.90;;;;;;5000887;28;20045;-64
2024/03/14 08:40:59;;;;;;;21.17;14.55;;;10.60;99.90;;;;;;5001706;28;20049;-64
2024/03/14 08:43:25;;;;;;;22.58;15.23;;;10.60;99.90;;;;;;5016775;28;20075;-63
2024/03/14 08:45:52;;;;;;;22.13;15.07;;;10.70;99.90;;;;;;5019100;28;20426;-66
2024/03/14 08:48:18;;;;;;;20.60;14.30;;;10.80;99.90;;;;;;5021355;28;20117;-67
2024/03/14 08:50:44;;;;;;;19.58;13.45;;;10.90;99.90;;;;;;5017390;28;20041;-67
2024/03/14 08:53:12;;;;;;;18.90;13.35;;;10.90;99.90;;;;;;5012111;28;20075;-67
2024/03/14 08:55:54;;;;;;;18.58;13.15;;;11.00;99.90;;;;;;5032183;28;20065;-66
2024/03/14 08:58:26;;;;;;;19.25;14.40;;;11.00;99.90;;;;;;5032270;28;20043;-65
2024/03/14 09:00:52;;;;;;;19.33;12.93;;;11.10;99.90;;;;;;5032066;28;20030;-65
2024/03/14 09:03:18;;;;;;;19.15;12.63;;;11.20;99.90;;;;;;5032789;28;20401;-66
2024/03/14 09:05:45;;;;;;;17.20;12.10;;;11.30;99.90;;;;;;5032453;28;20540;-66
2024/03/14 09:08:11;;;;;;;17.50;12.57;;;11.30;99.90;;;;;;5026778;28;20487;-67
2024/03/14 09:10:37;;;;;;;18.33;12.63;;;11.40;99.90;;;;;;5026216;28;20038;-67
2024/03/14 09:13:06;;;;;;;21.65;12.23;;;11.40;99.90;;;;;;5032594;28;20041;-67
2024/03/14 09:15:33;;;;;;;15.63;10.95;;;11.60;99.90;;;;;;5031422;28;20060;-66
2024/03/14 09:17:59;;;;;;;17.33;11.63;;;11.60;99.90;;;;;;5033514;28;20398;-67
2024/03/14 09:20:27;;;;;;;16.95;11.77;;;11.60;99.90;;;;;;5015661;28;20553;-67
2024/03/14 09:22:55;;;;;;;16.67;11.40;;;11.70;99.90;;;;;;5033167;28;20511;-66
2024/03/14 09:25:22;;;;;;;15.10;11.40;;;11.80;99.90;;;;;;5031696;28;20034;-67
2024/03/14 09:27:48;;;;;;;16.33;11.25;;;11.80;99.90;;;;;;5030479;28;20042;-66
2024/03/14 09:30:14;;;;;;;16.23;11.20;;;11.90;99.90;;;;;;5029052;28;20505;-65
2024/03/14 09:32:41;;;;;;;19.13;11.38;;;12.00;99.90;;;;;;5027472;28;20030;-67
2024/03/14 09:35:11;;;;;;;16.17;11.30;;;11.90;99.90;;;;;;5010856;28;20038;-67
2024/03/14 09:37:37;;;;;;;16.50;11.30;;;12.00;99.90;;;;;;5008250;28;20079;-67
2024/03/14 09:40:07;;;;;;;17.45;11.20;;;12.00;99.90;;;;;;5029572;28;20033;-64
2024/03/14 09:42:33;;;;;;;15.93;11.30;;;12.10;99.90;;;;;;5001259;28;20045;-64
2024/03/14 09:45:01;;;;;;;15.35;10.77;;;12.20;99.90;;;;;;5013163;28;20057;-67
2024/03/14 09:47:37;;;;;;;12.90;9.90;;;12.30;99.90;;;;;;5032122;28;20115;-65
2024/03/14 09:50:05;;;;;;;15.50;9.75;;;12.30;99.90;;;;;;5031564;28;20041;-64
2024/03/14 09:52:35;;;;;;;15.32;10.18;;;12.40;99.90;;;;;;5029543;28;20041;-67
2024/03/14 09:55:03;;;;;;;15.38;10.15;;;12.40;99.90;;;;;;5012338;28;20124;-63
2024/03/14 09:57:32;;;;;;;13.35;9.63;;;12.50;99.90;;;;;;5031097;28;20125;-67
2024/03/14 09:59:58;;;;;;;13.23;9.45;;;12.50;99.90;;;;;;5032447;28;20037;-66
2024/03/14 10:02:27;;;;;;;15.48;10.23;;;12.50;99.90;;;;;;5032652;28;20042;-67
2024/03/14 10:04:53;;;;;;;13.48;9.75;;;12.50;99.90;;;;;;5029238;28;20107;-64
2024/03/14 10:07:19;;;;;;;14.48;10.52;;;12.50;99.90;;;;;;5027467;28;20041;-67
2024/03/14 10:09:44;;;;;;;13.38;9.35;;;12.50;99.90;;;;;;5012035;28;20041;-67
2024/03/14 10:12:10;;;;;;;13.52;10.38;;;12.60;99.90;;;;;;5030789;28;20038;-67
2024/03/14 10:14:36;;;;;;;13.27;9.85;;;12.70;99.90;;;;;;5009974;28;20103;-66
2024/03/14 10:17:02;;;;;;;;;;;12.80;99.90;;;;;;5026606;28;20417;-67
2024/03/14 10:19:32;;;;;;;14.13;9.25;;;13.00;99.90;;;;;;5013012;28;19917;-66
2024/03/14 10:22:01;;;;;;;12.77;9.45;;;13.10;99.90;;;;;;5039936;23;20077;-76
2024/03/14 10:24:27;;;;;;;13.48;9.70;;;13.30;99.90;;;;;;5019622;28;20059;-76
2024/03/14 10:26:55;;;;;;;13.68;9.05;;;13.40;99.90;;;;;;5023814;28;20043;-76
2024/03/14 10:29:22;;;;;;;11.68;9.48;;;13.50;99.90;;;;;;5052674;28;20147;-76
2024/03/14 10:31:52;;;;;;;11.57;8.88;;;13.50;99.90;;;;;;5025613;28;20117;-76
2024/03/14 10:34:19;;;;;;;12.55;8.60;;;13.60;99.90;;;;;;5024847;28;20161;-76
2024/03/14 10:36:51;;;;;;;;;;;13.70;99.90;;;;;;5013571;28;20577;-76
2024/03/14 10:39:21;;;;;;;12.07;8.63;;;14.00;99.90;;;;;;5014908;28;19967;-76
2024/03/14 10:41:48;;;;;;;12.00;8.50;;;14.20;99.90;;;;;;5004003;28;20080;-76
2024/03/14 10:44:18;;;;;;;10.63;8.20;;;14.40;99.90;;;;;;5011687;28;20042;-76
2024/03/14 10:46:51;;;;;;;11.75;8.00;;;14.60;99.90;;;;;;4999004;28;20120;-75
2024/03/14 10:49:22;;;;;;;9.55;7.25;;;14.80;99.90;;;;;;5013100;28;20130;-75
2024/03/14 10:51:52;;;;;;;12.45;7.20;;;14.60;99.90;;;;;;5014163;28;20495;-76
2024/03/14 10:54:23;;;;;;;11.90;6.82;;;14.60;99.90;;;;;;4998965;28;20037;-76
2024/03/14 10:56:50;;;;;;;10.65;6.47;;;14.60;99.90;;;;;;5015103;28;20041;-76
2024/03/14 10:59:16;;;;;;;10.65;6.88;;;14.50;99.90;;;;;;5008757;28;20050;-76
2024/03/14 11:01:54;;;;;;;11.95;7.90;;;14.50;99.90;;;;;;5032767;28;20037;-76
2024/03/14 11:04:20;;;;;;;11.80;7.40;;;14.50;99.90;;;;;;5013743;28;20091;-76
2024/03/14 11:06:50;;;;;;;10.68;7.95;;;14.60;99.90;;;;;;5014447;28;20052;-76
2024/03/14 11:09:25;;;;;;;11.13;6.50;;;14.60;99.90;;;;;;4997597;28;20500;-76
2024/03/14 11:12:03;;;;;;;8.38;6.13;;;14.60;99.90;;;;;;5031505;28;20037;-76
2024/03/14 11:14:50;;;;;;;10.68;5.13;;;14.70;99.90;;;;;;4999328;28;20037;-76
2024/03/14 11:17:24;;;;;;;8.52;5.38;;;14.90;99.90;;;;;;5006277;28;20072;-76
2024/03/14 11:19:51;;;;;;;9.02;5.07;;;14.90;99.90;;;;;;5008253;28;20041;-77
2024/03/14 11:22:19;;;;;;;7.80;5.20;;;14.90;99.90;;;;;;5032287;28;20052;-76
2024/03/14 11:24:51;;;;;;;9.30;5.35;;;15.00;99.90;;;;;;5032760;28;20455;-76
2024/03/14 11:27:20;;;;;;;6.70;5.20;;;14.90;99.90;;;;;;5030761;28;20038;-76
2024/03/14 11:29:48;;;;;;;10.18;5.47;;;15.10;99.90;;;;;;5026445;28;20049;-76
2024/03/14 11:32:18;;;;;;;;;;;16.00;99.90;;;;;;5012237;28;20049;-76
2024/03/14 11:34:46;;;;;;;8.70;5.35;;;15.80;99.90;;;;;;5023831;28;20414;-76
2024/03/14 11:37:13;;;;;;;9.98;5.68;;;15.80;99.90;;;;;;5028995;28;20099;-76
2024/03/14 11:39:39;;;;;;;8.75;5.30;;;16.30;99.90;;;;;;4996800;28;20399;-76
2024/03/14 11:42:06;;;;;;;10.65;5.40;;;16.30;99.90;;;;;;5029284;28;20415;-76
2024/03/14 11:44:32;;;;;;;8.23;5.05;;;16.60;99.90;;;;;;5022817;28;20460;-76
2024/03/14 11:46:59;;;;;;;11.32;5.03;;;16.40;99.90;;;;;;5008403;28;20535;-76
2024/03/14 11:49:28;;;;;;;7.03;4.65;;;16.40;99.90;;;;;;5029790;28;20041;-76
2024/03/14 11:51:55;;;;;;;6.45;4.70;;;16.50;99.90;;;;;;4992637;28;20033;-76
2024/03/14 11:54:21;;;;;;;5.97;4.45;;;16.60;99.90;;;;;;4996409;28;20037;-76
2024/03/14 11:56:47;;;;;;;9.13;5.07;;;16.80;99.90;;;;;;5010114;28;20080;-76
2024/03/14 11:59:15;;;;;;;5.80;4.30;;;16.70;99.90;;;;;;5017210;28;20042;-76
2024/03/14 12:01:40;;;;;;;7.45;4.47;;;16.80;99.90;;;;;;5006295;28;20439;-77
2024/03/14 12:04:10;;;;;;;7.45;4.28;;;16.80;99.90;;;;;;4996474;28;20048;-77
2024/03/14 12:06:37;;;;;;;8.50;4.28;;;16.90;99.90;;;;;;5030754;28;20041;-77
2024/03/14 12:09:06;;;;;;;8.70;4.43;;;16.90;99.90;;;;;;4995395;28;20488;-76
2024/03/14 12:11:33;;;;;;;6.50;4.63;;;16.90;99.90;;;;;;5024126;28;20072;-76
2024/03/14 12:13:59;;;;;;;6.80;3.92;;;17.00;99.90;;;;;;5010688;28;20036;-76
2024/03/14 12:16:26;;;;;;;7.72;4.90;;;17.00;99.90;;;;;;5008322;28;20219;-75
2024/03/14 12:18:52;;;;;;;5.60;4.10;;;17.00;99.90;;;;;;5023604;28;20041;-77
2024/03/14 12:21:19;;;;;;;5.93;4.47;;;17.00;99.90;;;;;;5026483;28;20033;-77
2024/03/14 12:23:54;;;;;;;7.03;4.45;;;17.00;99.90;;;;;;4997414;28;20042;-77
2024/03/14 12:26:21;;;;;;;6.40;4.10;;;17.10;99.90;;;;;;5028930;28;20044;-77
2024/03/14 12:28:51;;;;;;;8.18;4.03;;;17.10;99.90;;;;;;4996304;28;20053;-77
2024/03/14 12:31:20;;;;;;;9.75;4.97;;;16.90;99.90;;;;;;4995069;28;20038;-77
2024/03/14 12:33:46;;;;;;;5.97;4.97;;;16.80;99.90;;;;;;5028151;28;20057;-76
2024/03/14 12:36:18;;;;;;;7.72;4.40;;;16.70;99.90;;;;;;4992305;28;20046;-77